Flight Track Log - Related Links

Times and Time Zones

All times are in EDT time to prevent confusion due to time zone crossing. See the FIN666 flight status page for this flight to view local times or setup timezone preferences in your user account.

Time Position Orientation Groundspeed Altitude Reporting Facility
EDT Latitude Longitude Course Direction KTS MPH feet Rate Location/Type
Mon 07:25:00 AM 55.8272 13.0881 49° Northeast  Level Estimated
Mon 07:26:00 AM 55.8966 13.2332 49° Northeast  Level Estimated
Mon 07:27:00 AM 55.9658 13.3788 50° Northeast  Level Estimated
Mon 07:28:00 AM 56.0349 13.5249 50° Northeast  Level Estimated
Mon 07:29:00 AM 56.1087 13.6820 50° Northeast  Level Estimated
Mon 07:30:00 AM 56.1823 13.8398 50° Northeast  Level Estimated
Mon 07:31:00 AM 56.2557 13.9981 50° Northeast  Level Estimated
Mon 07:32:00 AM 56.3289 14.1571 50° Northeast  Level Estimated
Mon 07:33:00 AM 56.4019 14.3167 50° Northeast  Level Estimated
Mon 07:34:00 AM 56.4747 14.4768 51° Northeast  Level Estimated
Mon 07:35:00 AM 56.5472 14.6376 51° Northeast  Level Estimated
Mon 07:36:00 AM 56.6196 14.7990 51° Northeast  Level Estimated
Mon 07:37:00 AM 56.6918 14.9611 51° Northeast  Level Estimated
Mon 07:38:00 AM 56.7637 15.1237 51° Northeast  Level Estimated
Mon 07:39:00 AM 56.8355 15.2870 51° Northeast  Level Estimated
Mon 07:40:00 AM 56.9070 15.4509 51° Northeast  Level Estimated
Mon 07:41:00 AM 56.9783 15.6154 51° Northeast  Level Estimated
Mon 07:42:00 AM 57.0494 15.7806 52° Northeast  Level Estimated
Mon 07:43:00 AM 57.1203 15.9464 52° Northeast  Level Estimated
Mon 07:44:00 AM 57.1909 16.1128 52° Northeast  Level Estimated
Mon 07:45:00 AM 57.2614 16.2799 52° Northeast  Level Estimated
Mon 07:46:00 AM 57.3316 16.4475 52° Northeast  Level Estimated
Mon 07:47:00 AM 57.4016 16.6159 52° Northeast  Level Estimated
Mon 07:48:00 AM 57.4714 16.7849 52° Northeast  Level Estimated
Mon 07:49:00 AM 57.5409 16.9545 53° Northeast  Level Estimated
Mon 07:50:00 AM 57.6102 17.1248 53° Northeast  Level Estimated
Mon 07:51:00 AM 57.6793 17.2957 53° Northeast  Level Estimated
Mon 07:52:00 AM 57.7481 17.4673 53° Northeast  Level Estimated
Mon 07:53:00 AM 57.8167 17.6395 53° Northeast  Level Estimated
Mon 07:54:00 AM 57.8851 17.8124 53° Northeast  Level Estimated
Mon 07:55:00 AM 57.9533 17.9860 53° Northeast  Level Estimated
Mon 07:56:00 AM 58.0212 18.1602 54° Northeast  Level Estimated
Mon 07:57:00 AM 58.0889 18.3350 54° Northeast  Level Estimated
Mon 07:58:00 AM 58.1563 18.5106 54° Northeast  Level Estimated
Mon 07:59:00 AM 58.2235 18.6868 54° Northeast  Level Estimated
Mon 08:00:00 AM 58.2904 18.8636 54° Northeast  Level Estimated
Mon 08:01:00 AM 58.3571 19.0411 54° Northeast  Level Estimated
Mon 08:02:00 AM 58.4236 19.2194 54° Northeast  Level Estimated
Mon 08:03:00 AM 58.4898 19.3982 55° Northeast  Level Estimated
Mon 08:04:00 AM 58.5557 19.5778 55° Northeast  Level Estimated
Mon 08:05:00 AM 58.6214 19.7580 55° Northeast  Level Estimated
Mon 08:06:00 AM 58.6869 19.9389 55° Northeast  Level Estimated
Mon 08:07:00 AM 58.7521 20.1205 55° Northeast  Level Estimated
Mon 08:08:00 AM 58.8170 20.3028 55° Northeast  Level Estimated
Mon 08:09:00 AM 58.8817 20.4857 56° Northeast  Level Estimated
Mon 08:10:00 AM 58.9461 20.6693 56° Northeast  Level Estimated
Mon 08:11:00 AM 59.0103 20.8536 56° Northeast  Level Estimated
Mon 08:12:00 AM 59.0742 21.0387 56° Northeast  Level Estimated
Mon 08:13:00 AM 59.1378 21.2243 56° Northeast  Level Estimated
Mon 08:14:00 AM 59.2012 21.4107 56° Northeast  Level Estimated
Mon 08:15:00 AM 59.2634 21.5952 57° Northeast  Level Estimated
Mon 08:16:00 AM 59.3254 21.7803 57° Northeast  Level Estimated
Mon 08:17:00 AM 59.3870 21.9660 57° Northeast  Level Estimated
Mon 08:18:00 AM 59.4485 22.1525 57° Northeast  Level Estimated
Mon 08:19:00 AM 59.5096 22.3396 57° Northeast  Level Estimated
Mon 08:20:00 AM 59.5705 22.5275 57° Northeast  Level Estimated
Mon 08:21:00 AM 59.6311 22.7160 57° Northeast  Level Estimated
Mon 08:22:00 AM 59.6915 22.9051 58° Northeast  Level Estimated
Mon 08:23:00 AM 59.7515 23.0950 58° Northeast  Level Estimated
Mon 08:24:00 AM 59.8114 23.2855 58° Northeast  Level Estimated
Mon 08:25:00 AM 59.8709 23.4767 58° Northeast  Level Estimated
Mon 08:26:00 AM 59.9301 23.6686 58° Northeast  Level Estimated
Mon 08:27:00 AM 59.9891 23.8612 58° Northeast  Level Estimated
Mon 08:28:00 AM 60.0478 24.0545 59° Northeast  Level Estimated
Mon 08:29:00 AM 60.1062 24.2485 59° Northeast  Level Estimated
Mon 08:30:00 AM 60.1643 24.4431 59° Northeast  Level Estimated
Mon 08:31:00 AM 60.2221 24.6385 59° Northeast  Level Estimated
Mon 08:32:00 AM 60.2797 24.8345 59° Northeast  Level Estimated
Mon 08:33:00 AM 60.3172 24.9633 59° Northeast  Level Estimated
Mon 08:34:00 AM 60.3172 24.9633 North  Level Estimated
Mon 08:35:00 AM 60.3172 24.9633 North  Level Estimated
Mon 08:36:00 AM 60.3172 24.9633 North  Level Estimated
Mon 08:37:00 AM 60.3172 24.9633 North  Level Estimated
Mon 08:38:00 AM 60.3172 24.9633 North  Level Estimated
Mon 08:39:00 AM 60.3172 24.9633 North  Level Estimated
Mon 08:40:00 AM 60.3172 24.9633 North  Level Estimated
Mon 08:41:00 AM 60.3172 24.9633 North  Level Estimated
Mon 08:42:00 AM 60.3172 24.9633 North  Level Estimated
Mon 08:43:00 AM 60.3172 24.9633 North  Level Estimated

Login

Don't have an account? Register now (free) for customized features, flight alerts, and more!